Time;durP1;ratioP1;P1;durP2;ratioP2;P2;SDS_P1;SDS_P2;PMS_P1;PMS_P2;Temp;Humidity;BMP_temperature;BMP_pressure;BME280_temperature;BME280_humidity;BME280_pressure;Samples;Min_cycle;Max_cycle;Signal;HPM_P1;HPM_P2
2022/02/08 00:00:52;;;;;;;;;5.00;5.00;;;;;13.03;41.17;98597.75;4985423;27;102555;-80
2022/02/08 00:03:20;;;;;;;;;5.50;5.00;;;;;13.03;41.59;98606.75;4987927;27;103250;-80
2022/02/08 00:06:38;;;;;;;;;5.00;5.00;;;;;13.02;41.42;98615.09;4975263;27;104249;-80
2022/02/08 00:08:34;;;;;;;;;3.50;3.50;;;;;13.02;42.14;98612.38;4970167;28;102098;-80
2022/02/08 00:11:02;;;;;;;;;5.50;4.25;;;;;13.01;41.53;98617.00;4981548;27;104347;-80
2022/02/08 00:13:29;;;;;;;;;3.50;2.50;;;;;12.99;41.98;98621.78;4975155;28;103301;-80
2022/02/08 00:15:56;;;;;;;;;4.00;4.00;;;;;12.98;41.49;98626.38;4973759;28;104057;-80
2022/02/08 00:18:23;;;;;;;;;4.75;4.75;;;;;12.99;41.92;98621.78;4980159;28;102431;-80
2022/02/08 00:20:50;;;;;;;;;4.00;4.00;;;;;12.97;41.19;98626.59;4963946;27;102518;-80
2022/02/08 00:23:17;;;;;;;;;3.50;3.50;;;;;12.96;41.99;98620.38;4977537;28;102302;-80
2022/02/08 00:25:44;;;;;;;;;6.00;4.00;;;;;12.97;41.36;98624.72;4968092;27;104082;-80
2022/02/08 00:28:11;;;;;;;;;5.00;4.00;;;;;12.98;41.40;98625.56;4977844;28;103395;-80
2022/02/08 00:30:38;;;;;;;;;3.00;3.00;;;;;12.99;41.19;98627.22;4969971;28;103099;-80
2022/02/08 00:33:05;;;;;;;;;5.00;5.00;;;;;12.97;42.05;98632.03;4989970;28;102320;-80
2022/02/08 00:35:32;;;;;;;;;4.25;4.25;;;;;12.97;41.22;98634.72;4982292;27;108950;-80
2022/02/08 00:37:59;;;;;;;;;4.25;4.00;;;;;12.98;41.30;98636.41;4974829;27;102275;-80
2022/02/08 00:40:27;;;;;;;;;5.00;4.25;;;;;12.97;41.05;98634.72;4981220;27;102276;-81
2022/02/08 00:42:56;;;;;;;;;4.00;4.00;;;;;12.97;41.08;98635.56;4984086;27;102347;-80
2022/02/08 00:45:35;;;;;;;;;4.00;3.25;;;;;12.95;41.98;98643.13;4972816;27;103841;-80
2022/02/08 00:48:16;;;;;;;;;3.75;3.75;;;;;12.97;42.04;98634.72;4987122;27;102225;-80
2022/02/08 00:50:49;;;;;;;;;5.00;5.00;;;;;12.96;41.78;98642.06;4978573;27;102365;-80
2022/02/08 00:53:17;;;;;;;;;4.75;3.00;;;;;12.96;41.48;98655.66;4992924;27;102625;-80
2022/02/08 00:55:44;;;;;;;;;3.00;3.00;;;;;12.95;41.70;98653.97;4981935;28;104236;-79
2022/02/08 00:58:11;;;;;;;;;3.00;3.00;;;;;12.92;41.11;98654.38;4994225;27;102562;-80
2022/02/08 01:00:39;;;;;;;;;4.25;3.50;;;;;12.93;41.71;98660.66;4987736;27;102601;-80
2022/02/08 01:03:06;;;;;;;;;4.25;4.00;;;;;12.90;41.71;98661.09;4981370;28;104899;-80
2022/02/08 01:05:38;;;;;;;;;2.50;2.25;;;;;12.88;41.06;98657.72;4929226;27;108844;-80
2022/02/08 01:08:05;;;;;;;;;4.00;3.00;;;;;12.88;41.46;98668.59;4953828;28;103144;-80
2022/02/08 01:10:37;;;;;;;;;4.50;4.00;;;;;12.88;41.50;98674.84;4942816;28;102406;-80
2022/02/08 01:13:05;;;;;;;;;3.00;3.00;;;;;12.90;41.71;98671.94;4970439;27;102543;-80
2022/02/08 01:15:32;;;;;;;;;2.25;2.00;;;;;12.90;41.11;98671.94;4974051;28;109008;-80
2022/02/08 01:18:00;;;;;;;;;4.00;4.00;;;;;12.91;41.61;98681.75;4976722;27;102719;-80
2022/02/08 01:20:32;;;;;;;;;4.75;4.00;;;;;12.89;41.08;98681.97;4983615;27;102468;-79
2022/02/08 01:23:03;;;;;;;;;4.00;3.00;;;;;12.91;41.65;98690.72;4972552;28;103810;-80
2022/02/08 01:25:36;;;;;;;;;3.00;3.00;;;;;12.89;41.60;98691.97;4969230;27;104122;-80
2022/02/08 01:28:18;;;;;;;;;4.00;3.00;;;;;12.89;41.47;98686.56;4977788;27;103539;-80
2022/02/08 01:30:59;;;;;;;;;2.50;2.50;;;;;12.89;41.02;98691.97;4975329;28;102490;-80
2022/02/08 01:38:38;;;;;;;;;3.25;3.25;;;;;12.86;41.26;98698.69;4974114;27;102529;-80
2022/02/08 01:44:22;;;;;;;;;2.25;2.00;;;;;12.84;41.86;98706.19;4962483;27;102431;-80
2022/02/08 01:51:43;;;;;;;;;3.00;3.00;;;;;12.81;41.72;98713.91;4972971;27;102676;-79
2022/02/08 01:54:10;;;;;;;;;2.00;2.00;;;;;12.82;41.15;98723.75;4960285;28;102875;-79
2022/02/08 01:56:39;;;;;;;;;3.00;3.00;;;;;12.83;41.67;98728.94;4974789;28;104299;-79
2022/02/08 01:59:06;;;;;;;;;1.25;0.00;;;;;12.84;42.00;98735.19;4950208;28;102321;-80
2022/02/08 02:01:33;;;;;;;;;4.75;4.00;;;;;12.83;41.03;98733.56;4950679;28;102592;-80
2022/02/08 02:04:00;;;;;;;;;2.00;2.00;;;;;12.85;41.57;98739.59;4948581;27;103710;-79
2022/02/08 02:06:37;;;;;;;;;4.00;3.00;;;;;12.84;41.89;98740.63;4946627;27;105901;-80
2022/02/08 02:09:05;;;;;;;;;2.75;2.75;;;;;12.84;41.09;98735.19;4959945;28;103562;-80
2022/02/08 02:11:33;;;;;;;;;2.50;2.50;;;;;12.84;41.08;98748.75;4909543;28;103514;-80
2022/02/08 02:14:00;;;;;;;;;2.00;2.00;;;;;12.83;41.32;98747.94;4974378;28;104038;-80
2022/02/08 02:19:10;;;;;;;;;2.75;2.75;;;;;12.82;41.70;98754.44;4956396;27;103607;-80
2022/02/08 02:21:37;;;;;;;;;3.00;2.25;;;;;12.82;41.14;98756.31;4965584;27;102217;-80
2022/02/08 02:24:05;;;;;;;;;3.00;2.00;;;;;12.82;41.40;98767.16;4980219;27;103998;-80
2022/02/08 02:26:32;;;;;;;;;3.00;3.00;;;;;12.79;41.44;98756.69;4961819;27;104073;-80
2022/02/08 02:28:59;;;;;;;;;2.00;2.00;;;;;12.76;41.05;98768.00;4963937;27;102242;-80
2022/02/08 02:31:26;;;;;;;;;1.00;1.00;;;;;12.77;41.88;98766.94;4981777;27;102325;-80
2022/02/08 02:33:53;;;;;;;;;2.75;2.75;;;;;12.76;41.09;98770.69;4973194;27;105709;-80
2022/02/08 02:36:21;;;;;;;;;3.00;2.75;;;;;12.76;41.19;98770.69;4964401;28;104231;-80
2022/02/08 02:38:48;;;;;;;;;3.00;2.25;;;;;12.76;41.78;98776.13;4979964;27;102623;-80
2022/02/08 02:41:15;;;;;;;;;1.50;1.50;;;;;12.76;41.36;98773.41;4974676;27;102262;-79
2022/02/08 02:43:45;;;;;;;;;3.25;3.00;;;;;12.77;41.82;98784.06;4984347;27;102745;-80
2022/02/08 02:46:12;;;;;;;;;2.00;2.00;;;;;12.76;41.12;98786.97;4965149;27;109058;-80
2022/02/08 02:48:39;;;;;;;;;2.50;2.00;;;;;12.77;41.66;98789.50;4959305;27;102518;-80
2022/02/08 02:51:06;;;;;;;;;6.50;2.50;;;;;12.78;41.83;98787.63;5007054;27;102715;-80
2022/02/08 02:53:33;;;;;;;;;3.25;3.25;;;;;12.77;41.05;98800.34;4992579;27;102458;-80
2022/02/08 02:56:00;;;;;;;;;2.00;1.75;;;;;12.77;41.04;98807.66;4976331;27;104051;-80
2022/02/08 02:58:31;;;;;;;;;4.25;2.75;;;;;12.76;42.06;98805.97;4975311;28;102559;-80
2022/02/08 03:01:21;;;;;;;;;3.00;2.75;;;;;12.77;41.97;98813.91;4977550;27;102362;-80
2022/02/08 03:20:05;;;;;;;;;0.00;0.00;;;;;12.92;41.82;98848.97;4983485;27;102116;-80
2022/02/08 03:22:32;;;;;;;;;2.00;2.00;;;;;12.98;41.04;98854.38;4980621;27;102651;-80
2022/02/08 03:24:59;;;;;;;;;3.75;2.75;;;;;13.02;41.07;98854.78;4985826;27;102768;-79
2022/02/08 03:27:26;;;;;;;;;1.00;1.00;;;;;13.05;41.47;98859.00;4979880;27;104050;-79
2022/02/08 03:29:53;;;;;;;;;1.00;1.00;;;;;13.07;41.49;98852.28;4974638;28;103480;-80
2022/02/08 03:32:22;;;;;;;;;1.00;1.00;;;;;13.10;41.66;98868.19;4989687;27;102180;-80
2022/02/08 03:34:49;;;;;;;;;2.00;1.00;;;;;13.12;40.67;98862.53;4980004;28;102268;-80
2022/02/08 03:37:17;;;;;;;;;1.00;1.00;;;;;13.13;41.03;98875.94;4971534;27;104060;-80
2022/02/08 03:39:53;;;;;;;;;1.00;1.00;;;;;13.14;40.59;98874.88;4980383;27;102405;-80
2022/02/08 03:42:24;;;;;;;;;2.25;2.25;;;;;13.17;41.40;98881.75;4967340;27;103889;-80
2022/02/08 03:44:52;;;;;;;;;1.25;1.25;;;;;13.17;41.54;98879.88;4964281;27;102279;-80
2022/02/08 03:47:20;;;;;;;;;1.00;1.00;;;;;13.19;40.62;98883.22;4972370;28;104045;-80
2022/02/08 03:49:48;;;;;;;;;2.00;1.00;;;;;13.22;40.66;98890.13;4982185;27;102566;-80
2022/02/08 03:52:15;;;;;;;;;1.00;1.00;;;;;13.23;40.56;98895.34;4981858;27;103495;-80
2022/02/08 03:54:42;;;;;;;;;2.00;2.00;;;;;13.25;40.58;98895.09;4999976;27;102378;-80
2022/02/08 03:57:10;;;;;;;;;1.00;1.00;;;;;13.27;40.37;98896.59;4985481;27;104231;-80
2022/02/08 03:59:38;;;;;;;;;1.00;1.00;;;;;13.28;40.69;98906.38;4982094;27;102575;-80
2022/02/08 04:02:29;;;;;;;;;2.25;1.00;;;;;13.30;41.07;98909.72;4990088;27;103720;-79
2022/02/08 04:07:47;;;;;;;;;1.00;1.00;;;;;13.32;40.72;98926.66;4983172;27;103589;-80
2022/02/08 04:10:24;;;;;;;;;1.75;1.00;;;;;13.32;40.24;98923.94;4983000;27;102228;-80
2022/02/08 04:13:05;;;;;;;;;1.50;1.25;;;;;13.33;40.97;98924.75;4983907;27;104074;-80
2022/02/08 04:45:14;;;;;;;;;1.00;1.00;;;;;13.25;41.24;98963.84;4974962;27;104544;-80
2022/02/08 04:47:44;;;;;;;;;0.00;0.00;;;;;13.26;40.88;98986.41;4980369;27;102427;-80
2022/02/08 04:50:13;;;;;;;;;0.25;0.25;;;;;13.27;40.32;98982.66;4979678;27;104039;-80
2022/02/08 04:52:41;;;;;;;;;1.00;1.00;;;;;13.28;41.14;98979.72;4978744;27;103942;-80
2022/02/08 04:55:28;;;;;;;;;1.50;1.00;;;;;13.28;40.13;98978.91;4972409;27;102506;-80
2022/02/08 05:00:59;;;;;;;;;1.00;1.00;;;;;13.27;40.90;98985.38;4983723;27;104057;-80
2022/02/08 05:41:52;;;;;;;;;1.25;1.00;;;;;13.09;41.52;99028.56;4989334;27;102593;-80
2022/02/08 05:44:32;;;;;;;;;1.75;1.00;;;;;13.08;41.56;99035.03;4971270;28;109076;-80
2022/02/08 05:46:59;;;;;;;;;0.00;0.00;;;;;13.07;41.57;99031.47;4980697;28;102427;-80
2022/02/08 05:49:38;;;;;;;;;1.00;1.00;;;;;13.06;40.52;99039.84;4984192;27;102894;-80
2022/02/08 05:54:39;;;;;;;;;1.00;1.00;;;;;13.04;41.04;99031.88;4978929;27;104596;-80
2022/02/08 05:57:07;;;;;;;;;1.75;0.75;;;;;13.04;41.14;99047.34;4984082;27;102405;-80
2022/02/08 05:59:34;;;;;;;;;2.00;1.00;;;;;13.01;41.23;99051.31;4976706;27;102521;-80
2022/02/08 06:02:01;;;;;;;;;1.00;1.00;;;;;12.99;41.01;99047.94;4988853;27;103044;-80
2022/02/08 06:04:28;;;;;;;;;0.00;0.00;;;;;12.97;41.07;99047.31;4975746;28;103886;-80
2022/02/08 06:06:56;;;;;;;;;1.00;0.00;;;;;12.94;41.66;99053.16;4974273;28;102762;-80
2022/02/08 06:09:23;;;;;;;;;0.00;0.00;;;;;12.93;40.85;99057.75;4976483;27;103531;-80
2022/02/08 06:11:52;;;;;;;;;1.00;1.00;;;;;12.92;41.40;99064.22;4981768;27;102700;-80
2022/02/08 06:14:24;;;;;;;;;1.00;1.00;;;;;12.92;40.83;99069.63;4976371;28;104878;-80
2022/02/08 06:16:52;;;;;;;;;0.75;0.25;;;;;12.98;41.58;99076.13;4991641;27;102547;-80
2022/02/08 06:19:19;;;;;;;;;1.00;1.00;;;;;13.02;40.67;99077.38;4992157;27;102316;-80
2022/02/08 06:21:46;;;;;;;;;0.25;0.25;;;;;13.03;40.80;99076.34;4991744;27;102507;-80
2022/02/08 06:24:13;;;;;;;;;0.75;0.75;;;;;13.05;40.63;99087.88;4985241;27;104206;-80
2022/02/08 06:26:41;;;;;;;;;0.00;0.00;;;;;13.09;41.24;99086.41;4980917;27;102526;-80
2022/02/08 06:29:20;;;;;;;;;1.00;1.00;;;;;13.12;40.76;99093.31;4974356;28;102299;-80
2022/02/08 06:31:47;;;;;;;;;1.00;0.00;;;;;13.17;40.43;99097.09;4983717;27;102443;-80
2022/02/08 06:34:18;;;;;;;;;0.25;0.25;;;;;13.19;40.87;99086.03;4978934;27;104065;-80
2022/02/08 06:36:46;;;;;;;;;0.00;0.00;;;;;13.21;40.89;99100.25;4982256;27;102462;-80
2022/02/08 06:39:17;;;;;;;;;1.00;1.00;;;;;13.24;40.51;99102.53;4988400;27;102489;-80
2022/02/08 06:41:50;;;;;;;;;0.50;0.50;;;;;13.28;41.42;99107.34;4977375;28;102295;-80
2022/02/08 06:44:17;;;;;;;;;1.00;0.50;;;;;13.30;40.91;99108.00;5007472;27;103995;-80
2022/02/08 06:46:44;;;;;;;;;0.75;0.75;;;;;13.35;40.73;99104.66;4987478;27;102165;-80
2022/02/08 06:49:11;;;;;;;;;2.00;1.00;;;;;13.37;41.41;99108.03;4989836;27;102160;-80
2022/02/08 06:51:38;;;;;;;;;0.00;0.00;;;;;13.37;41.10;99103.41;4982792;27;102391;-80
2022/02/08 06:54:05;;;;;;;;;0.00;0.00;;;;;13.40;41.19;99108.44;4978691;27;104220;-80
2022/02/08 06:56:32;;;;;;;;;1.00;0.00;;;;;13.44;40.91;99105.28;4984969;27;102556;-80
2022/02/08 06:59:06;;;;;;;;;1.00;1.00;;;;;13.46;40.49;99105.94;4983161;27;102166;-80
2022/02/08 07:01:35;;;;;;;;;1.00;1.00;;;;;13.49;40.25;99105.50;4986501;27;103439;-80
2022/02/08 07:04:05;;;;;;;;;0.75;0.00;;;;;13.50;40.49;99107.19;4986942;28;104571;-80
2022/02/08 07:06:32;;;;;;;;;1.00;1.00;;;;;13.52;41.10;99114.06;4974875;28;102182;-80
2022/02/08 07:08:59;;;;;;;;;1.00;1.00;;;;;13.55;40.32;99112.84;4978041;28;102790;-80
2022/02/08 07:11:26;;;;;;;;;1.25;0.00;;;;;13.56;40.58;99117.22;4981613;28;102623;-80
2022/02/08 07:13:53;;;;;;;;;0.00;0.00;;;;;13.59;41.01;99133.13;4976832;28;104009;-80
2022/02/08 07:16:21;;;;;;;;;1.00;0.75;;;;;13.61;40.48;99122.88;4992249;27;103104;-80
2022/02/08 07:18:48;;;;;;;;;1.00;1.00;;;;;13.63;40.87;99128.94;4978587;28;102304;-80
2022/02/08 07:21:15;;;;;;;;;0.50;0.50;;;;;13.63;40.64;99126.22;4976433;28;102602;-80
2022/02/08 07:23:42;;;;;;;;;1.00;0.00;;;;;13.64;40.25;99134.19;4983597;28;104067;-80
2022/02/08 07:26:09;;;;;;;;;0.50;0.50;;;;;13.67;41.08;99136.47;4977490;27;102042;-80
2022/02/08 07:28:41;;;;;;;;;0.00;0.00;;;;;13.70;40.70;99129.78;4974282;28;102527;-80
2022/02/08 07:31:21;;;;;;;;;1.00;0.00;;;;;13.71;40.39;99126.00;4980049;28;102412;-80
2022/02/08 07:34:00;;;;;;;;;0.00;0.00;;;;;13.72;40.57;99136.69;4991814;27;109472;-80
2022/02/08 07:36:40;;;;;;;;;1.00;0.50;;;;;13.74;40.92;99139.19;4979091;28;103197;-80
2022/02/08 07:39:10;;;;;;;;;1.00;1.00;;;;;13.78;39.97;99132.28;4988984;27;102602;-81
2022/02/08 07:44:06;;;;;;;;;1.00;0.00;;;;;13.80;40.81;99136.47;4979254;27;104067;-80
2022/02/08 07:46:33;;;;;;;;;0.25;0.25;;;;;13.81;40.22;99134.59;4971299;27;102304;-80
2022/02/08 07:49:03;;;;;;;;;2.00;1.00;;;;;13.82;40.51;99145.25;4987287;27;102967;-80
2022/02/08 07:51:32;;;;;;;;;0.00;0.00;;;;;13.83;39.89;99151.53;4986065;27;102168;-80
2022/02/08 07:54:03;;;;;;;;;1.00;0.00;;;;;13.85;40.09;99144.00;4988068;27;104148;-80
2022/02/08 07:56:30;;;;;;;;;0.00;0.00;;;;;13.87;40.37;99138.38;4986597;27;105708;-80
2022/02/08 07:58:57;;;;;;;;;0.00;0.00;;;;;13.90;39.85;99146.09;4983528;27;103340;-80
2022/02/08 08:01:24;;;;;;;;;0.50;0.50;;;;;13.91;40.40;99143.19;4995419;27;102576;-80
2022/02/08 08:03:51;;;;;;;;;0.00;0.00;;;;;13.92;39.97;99141.28;4977543;27;104077;-80
2022/02/08 08:06:19;;;;;;;;;0.00;0.00;;;;;13.92;39.84;99141.28;4996019;27;102504;-80
2022/02/08 08:08:47;;;;;;;;;0.50;0.00;;;;;13.94;40.70;99147.34;4994357;27;102213;-80
2022/02/08 08:11:21;;;;;;;;;0.75;0.00;;;;;13.95;40.39;99144.44;4989940;27;102523;-81
2022/02/08 08:13:54;;;;;;;;;0.00;0.00;;;;;13.96;39.96;99142.56;4983133;27;108809;-80
2022/02/08 08:16:27;;;;;;;;;1.00;0.25;;;;;13.98;39.66;99137.72;4979401;28;105059;-80
2022/02/08 08:21:24;;;;;;;;;0.00;0.00;;;;;14.03;40.19;99146.94;4982988;27;102485;-81
2022/02/08 08:23:52;;;;;;;;;0.00;0.00;;;;;14.03;40.45;99133.34;4969840;27;103989;-80
2022/02/08 08:26:19;;;;;;;;;1.00;0.75;;;;;14.05;40.61;99136.66;4982069;28;101990;-80
2022/02/08 08:28:47;;;;;;;;;0.75;0.00;;;;;14.07;40.25;99122.88;4979998;27;102302;-80
2022/02/08 08:31:14;;;;;;;;;0.75;0.00;;;;;14.08;39.82;99133.53;4988268;27;102681;-80
2022/02/08 08:34:01;;;;;;;;;0.00;0.00;;;;;14.09;39.75;99126.22;4989185;27;109683;-80
2022/02/08 08:36:29;;;;;;;;;0.75;0.75;;;;;14.10;40.27;99114.28;4973594;28;102259;-80
2022/02/08 08:38:56;;;;;;;;;0.00;0.00;;;;;14.11;40.00;99132.28;4989079;27;102484;-80
2022/02/08 08:50:16;;;;;;;;;1.00;0.00;;;;;14.17;39.91;99115.97;4985913;28;102374;-80
2022/02/08 08:52:46;;;;;;;;;0.25;0.25;;;;;14.18;39.55;99109.44;4997463;27;102175;-80
2022/02/08 08:55:16;;;;;;;;;1.25;0.75;;;;;14.20;39.81;99109.25;4980713;28;104023;-80
2022/02/08 08:57:43;;;;;;;;;1.00;1.00;;;;;14.21;40.22;99110.94;4970684;28;103263;-80
2022/02/08 09:00:11;;;;;;;;;0.00;0.00;;;;;14.23;39.50;99101.50;4992705;28;102621;-80
2022/02/08 09:02:38;;;;;;;;;1.00;1.00;;;;;14.24;40.25;99103.19;4985621;28;105830;-80
2022/02/08 09:05:09;;;;;;;;;1.00;0.00;;;;;14.26;39.69;99109.25;4984849;27;104071;-80
2022/02/08 09:07:39;;;;;;;;;1.50;1.00;;;;;14.25;39.85;99102.13;4993709;27;102317;-80
2022/02/08 09:10:07;;;;;;;;;1.00;0.00;;;;;14.27;39.72;99104.66;4982648;27;104409;-80
2022/02/08 09:24:10;;;;;;;;;1.00;0.00;;;;;14.31;39.75;99122.22;4987515;27;102540;-79
2022/02/08 09:29:09;;;;;;;;;0.00;0.00;;;;;14.32;39.82;99113.81;4979110;27;102863;-81
2022/02/08 09:31:37;;;;;;;;;1.00;0.00;;;;;14.33;40.12;99117.38;4983378;27;105326;-80
2022/02/08 09:34:05;;;;;;;;;0.00;0.00;;;;;14.35;39.55;99111.75;4976742;28;102591;-81
2022/02/08 09:36:32;;;;;;;;;1.75;1.00;;;;;14.36;40.25;99103.41;4991403;27;104343;-81
2022/02/08 09:38:59;;;;;;;;;0.00;0.00;;;;;14.37;39.81;99107.78;4975141;27;102148;-80
2022/02/08 09:41:27;;;;;;;;;0.00;0.00;;;;;14.40;39.67;99103.81;4988801;27;105459;-80
2022/02/08 09:43:54;;;;;;;;;1.50;1.00;;;;;14.42;40.13;99112.59;4983354;28;102650;-80
2022/02/08 09:46:22;;;;;;;;;0.00;0.00;;;;;14.43;39.52;99097.94;4986503;27;104445;-80
2022/02/08 09:48:59;;;;;;;;;1.00;0.00;;;;;14.43;39.66;99098.78;4983462;28;102490;-80
2022/02/08 09:51:26;;;;;;;;;1.00;1.00;;;;;14.44;39.71;99092.28;4990042;27;102525;-80
2022/02/08 09:53:56;;;;;;;;;0.00;0.00;;;;;14.44;39.75;99095.00;4983654;27;102242;-80
2022/02/08 09:56:26;;;;;;;;;1.00;0.50;;;;;14.44;39.83;99089.56;4990839;27;104189;-80
2022/02/08 09:58:54;;;;;;;;;0.00;0.00;;;;;14.45;39.82;99084.97;4983843;28;102574;-80
2022/02/08 10:01:23;;;;;;;;;0.50;0.50;;;;;14.47;39.56;99093.72;4988493;27;102991;-81
2022/02/08 10:03:55;;;;;;;;;0.00;0.00;;;;;14.46;39.96;99086.63;4998739;27;102459;-80
2022/02/08 10:06:25;;;;;;;;;1.00;1.00;;;;;14.47;39.82;99077.41;4989035;27;108694;-80
2022/02/08 10:09:02;;;;;;;;;0.00;0.00;;;;;14.48;39.50;99081.81;4989348;27;102157;-80
2022/02/08 10:11:39;;;;;;;;;0.00;0.00;;;;;14.48;40.15;99066.31;4984861;27;102493;-80
2022/02/08 10:22:15;;;;;;;;;0.75;0.00;;;;;14.51;39.44;99051.44;4978937;28;102567;-80
2022/02/08 10:24:49;;;;;;;;;1.00;0.00;;;;;14.51;39.49;99041.41;4988056;27;102284;-80
2022/02/08 10:27:27;;;;;;;;;0.25;0.25;;;;;14.52;39.61;99053.97;4988245;27;104030;-80
2022/02/08 10:37:56;;;;;;;;;0.00;0.00;;;;;14.53;39.57;99043.91;4990858;27;108311;-81
2022/02/08 10:40:23;;;;;;;;;0.00;0.00;;;;;14.54;39.84;99034.69;4975784;27;103227;-80
2022/02/08 10:42:55;;;;;;;;;1.00;0.00;;;;;14.53;39.23;99031.13;4988396;27;102485;-80
2022/02/08 10:45:29;;;;;;;;;0.75;0.00;;;;;14.53;39.83;99022.13;4984082;28;102504;-80
2022/02/08 10:47:59;;;;;;;;;1.00;1.00;;;;;14.53;39.40;99012.09;4980975;27;108711;-80
2022/02/08 10:50:27;;;;;;;;;1.00;1.00;;;;;14.54;39.70;99012.94;4978041;28;103161;-80
2022/02/08 10:52:56;;;;;;;;;1.00;0.00;;;;;14.54;39.14;99013.78;4987295;27;102254;-80
2022/02/08 10:55:41;;;;;;;;;0.00;0.00;;;;;14.54;39.96;99013.78;4987427;27;102552;-80
2022/02/08 11:00:58;;;;;;;;;0.25;0.25;;;;;14.56;40.03;99002.66;4978330;27;102273;-80
2022/02/08 11:03:33;;;;;;;;;0.00;0.00;;;;;14.57;39.59;99001.59;4991432;27;102117;-80
2022/02/08 11:11:59;;;;;;;;;1.00;0.00;;;;;14.56;39.97;98989.03;4980367;28;102470;-80
2022/02/08 11:20:11;;;;;;;;;0.00;0.00;;;;;14.56;39.53;98980.88;4992032;27;104098;-80
2022/02/08 11:23:02;;;;;;;;;0.00;0.00;;;;;14.55;39.48;98984.63;4984267;27;102112;-80
2022/02/08 11:25:36;;;;;;;;;1.00;0.50;;;;;14.55;39.29;98981.91;4981646;27;102335;-80
2022/02/08 11:28:21;;;;;;;;;1.00;0.00;;;;;14.55;40.03;98976.47;4986926;28;102506;-80
2022/02/08 11:31:44;;;;;;;;;1.25;1.00;;;;;14.55;39.45;98981.91;4985452;27;108744;-81
2022/02/08 11:50:48;;;;;;;;;0.00;0.00;;;;;14.56;39.55;98972.72;4978530;27;102433;-81
2022/02/08 11:56:29;;;;;;;;;1.00;1.00;;;;;14.57;39.62;98958.91;4961013;27;102651;-80
2022/02/08 12:04:43;;;;;;;;;0.25;0.25;;;;;14.57;39.35;98942.56;4952436;28;108711;-80
2022/02/08 12:07:16;;;;;;;;;0.25;0.00;;;;;14.57;39.88;98936.28;4983114;27;102161;-80
2022/02/08 12:10:01;;;;;;;;;1.00;1.00;;;;;14.56;39.24;98945.50;4978383;28;102423;-80
2022/02/08 12:32:16;;;;;;;;;0.00;0.00;;;;;14.61;39.48;98921.19;4992450;28;102440;-80
2022/02/08 12:54:21;;;;;;;;;0.75;0.00;;;;;14.62;39.49;98880.16;4989895;27;102258;-80
2022/02/08 12:59:57;;;;;;;;;1.00;1.00;;;;;14.63;39.64;98886.44;4979795;27;108869;-80
2022/02/08 13:19:11;;;;;;;;;0.25;0.00;;;;;14.65;39.23;98900.66;4978474;28;102229;-80
2022/02/08 14:03:30;;;;;;;;;1.00;0.50;;;;;14.63;39.85;98867.38;5003357;27;102404;-80
2022/02/08 14:08:34;;;;;;;;;1.25;1.00;;;;;14.62;39.75;98861.09;4983912;27;102207;-80
2022/02/08 14:14:12;;;;;;;;;2.75;1.25;;;;;14.59;39.24;98858.81;4983970;27;102442;-80
2022/02/08 14:17:14;;;;;;;;;1.00;1.00;;;;;14.60;39.51;98846.88;4980080;27;109117;-80
2022/02/08 14:22:15;;;;;;;;;2.00;2.00;;;;;14.58;39.40;98835.38;4965072;28;102708;-80
2022/02/08 14:30:46;;;;;;;;;2.50;1.50;;;;;14.58;39.99;98851.72;4982285;27;102415;-80
2022/02/08 14:57:47;;;;;;;;;1.00;1.00;;;;;14.52;39.13;98857.19;4983230;27;103404;-80
2022/02/08 15:00:21;;;;;;;;;2.75;1.25;;;;;14.53;39.28;98847.97;4975810;28;104064;-80
2022/02/08 15:05:47;;;;;;;;;1.00;1.00;;;;;14.50;39.57;98832.09;4973630;27;102147;-81
2022/02/08 15:08:49;;;;;;;;;1.00;1.00;;;;;14.48;40.20;98834.19;4986749;27;102158;-81
2022/02/08 15:11:11;;;;;;;;;2.00;1.00;;;;;14.49;39.48;98841.31;4981881;27;109785;-80
2022/02/08 15:13:44;;;;;;;;;1.00;1.00;;;;;14.47;40.13;98844.25;4981908;28;102215;-81
2022/02/08 15:18:41;;;;;;;;;1.00;1.00;;;;;14.44;39.96;98839.25;4978771;28;102729;-82
2022/02/08 15:21:20;;;;;;;;;3.25;1.00;;;;;14.44;39.97;98822.09;4975046;28;105497;-83
2022/02/08 15:23:49;;;;;;;;;0.50;0.00;;;;;14.42;39.58;98829.63;4977316;28;105342;-83
2022/02/08 15:26:16;;;;;;;;;2.75;1.50;;;;;14.41;40.08;98828.78;4979920;28;102225;-82
2022/02/08 15:28:43;;;;;;;;;1.00;1.00;;;;;14.40;39.86;98838.03;4980122;27;102413;-82
2022/02/08 15:31:10;;;;;;;;;1.00;1.00;;;;;14.39;39.53;98825.47;4984329;27;104161;-83
2022/02/08 15:33:37;;;;;;;;;1.25;1.00;;;;;14.38;39.37;98823.81;4985707;27;102762;-83
2022/02/08 15:36:05;;;;;;;;;1.00;1.00;;;;;14.37;39.78;98832.19;4990229;28;102280;-83
2022/02/08 15:38:36;;;;;;;;;1.00;1.00;;;;;14.37;40.23;98821.28;4982510;27;102288;-83
2022/02/08 15:41:03;;;;;;;;;1.00;1.00;;;;;14.36;39.95;98819.66;4982789;27;104875;-83
2022/02/08 15:43:31;;;;;;;;;2.75;2.00;;;;;14.36;39.58;98830.53;4986159;28;102473;-82
2022/02/08 15:46:06;;;;;;;;;1.50;1.00;;;;;14.36;39.61;98825.09;4970001;27;102411;-81
2022/02/08 15:48:34;;;;;;;;;1.00;1.00;;;;;14.35;39.64;98828.81;4991402;28;103214;-82
2022/02/08 15:51:16;;;;;;;;;1.00;1.00;;;;;14.34;39.96;98822.53;4976572;27;103052;-83
2022/02/08 16:05:06;;;;;;;;;2.75;2.00;;;;;14.27;39.61;98822.56;4974470;28;104075;-81
2022/02/08 16:07:07;;;;;;;;;1.00;1.00;;;;;14.24;39.22;98823.03;4984677;27;102380;-81
2022/02/08 16:09:44;;;;;;;;;2.25;2.25;;;;;14.17;39.92;98821.41;4992448;27;102590;-81
2022/02/08 16:15:03;;;;;;;;;1.00;1.00;;;;;14.11;39.77;98830.44;4975629;27;102213;-81
2022/02/08 16:26:00;;;;;;;;;1.25;1.25;;;;;14.00;40.65;98822.97;5006445;27;103742;-82
2022/02/08 17:00:30;;;;;;;;;5.00;3.00;;;;;13.72;40.85;98820.59;4984554;27;102478;-80
2022/02/08 17:03:12;;;;;;;;;3.00;3.00;;;;;13.70;40.86;98826.25;4974471;28;102179;-80
2022/02/08 17:05:39;;;;;;;;;2.00;2.00;;;;;13.70;40.59;98817.25;4984478;27;104047;-81
2022/02/08 17:08:10;;;;;;;;;4.25;3.00;;;;;13.70;40.50;98830.84;4983021;27;102323;-83
2022/02/08 17:10:42;;;;;;;;;3.00;3.00;;;;;13.70;40.30;98836.28;4972873;28;103128;-80
2022/02/08 17:13:20;;;;;;;;;4.00;2.00;;;;;13.71;40.40;98837.94;4992332;27;102275;-84
2022/02/08 17:46:11;;;;;;;;;5.00;3.75;;;;;13.50;40.86;98816.50;4991696;27;102452;-79
2022/02/08 17:48:13;;;;;;;;;4.00;3.00;;;;;13.48;40.73;98800.41;4945349;27;109420;-79
2022/02/08 17:50:40;;;;;;;;;4.00;4.00;;;;;13.46;40.27;98818.81;4947594;27;102204;-79
2022/02/08 17:53:07;;;;;;;;;3.00;3.00;;;;;13.45;40.44;98811.72;4942591;28;102082;-80
2022/02/08 17:55:34;;;;;;;;;4.75;3.50;;;;;13.47;41.25;98804.19;4958082;27;105241;-80
2022/02/08 17:58:02;;;;;;;;;3.75;3.00;;;;;13.50;40.84;98811.06;4970303;28;108645;-79
2022/02/08 18:00:32;;;;;;;;;3.50;3.00;;;;;13.50;40.30;98808.38;4979959;28;102154;-79
2022/02/08 18:03:02;;;;;;;;;3.25;2.50;;;;;13.48;41.37;98808.56;4955481;28;108219;-80
2022/02/08 18:05:29;;;;;;;;;3.50;2.25;;;;;13.48;41.05;98813.16;4981667;27;102721;-80
2022/02/08 18:07:57;;;;;;;;;2.75;2.75;;;;;13.47;41.07;98808.78;4984153;27;105720;-80
2022/02/08 18:10:30;;;;;;;;;4.00;3.00;;;;;13.45;40.93;98808.16;4979411;28;102216;-80
2022/02/08 18:12:58;;;;;;;;;4.00;4.00;;;;;13.45;41.01;98806.28;4960778;27;102348;-80
2022/02/08 18:15:27;;;;;;;;;3.00;2.50;;;;;13.45;41.12;98810.88;4976308;27;102224;-79
2022/02/08 18:18:00;;;;;;;;;3.50;3.00;;;;;13.44;41.51;98814.63;4981803;27;104049;-79
2022/02/08 19:11:59;;;;;;;;;7.25;4.75;;;;;13.51;42.17;98821.72;4978947;28;108906;-78
2022/02/08 19:17:33;;;;;;;;;7.00;4.75;;;;;13.49;41.98;98844.72;4972106;27;102297;-78
2022/02/08 19:20:07;;;;;;;;;6.00;4.25;;;;;13.49;42.25;98850.16;4974845;27;103593;-78
2022/02/08 19:22:34;;;;;;;;;5.75;5.00;;;;;13.48;42.14;98840.31;4969228;27;104037;-78
2022/02/08 19:25:01;;;;;;;;;6.25;4.25;;;;;13.48;41.51;98838.44;4976214;28;102819;-78
2022/02/08 19:27:28;;;;;;;;;6.25;5.00;;;;;13.47;41.66;98841.38;4981819;27;102324;-78
2022/02/08 19:29:55;;;;;;;;;6.25;5.25;;;;;13.46;42.20;98839.72;4974386;27;103944;-78
2022/02/08 19:32:22;;;;;;;;;6.25;4.00;;;;;13.46;42.51;98859.56;4992383;27;104073;-78
2022/02/08 19:34:49;;;;;;;;;5.25;4.00;;;;;13.46;42.55;98856.84;4977693;27;102370;-78